Accueil
METAR-TAF:

METAR-TAF

Aéroports :

Londres, Angleterre

Aéroport de Londres-City

latitude: 51-30N, longitude: 000-03E, altitude: 5 m

Observation

Le bulletin a été fait il y a 19 minutes, à 04:50 UTC
Vent 2 kt de direction variable
Température 3°C
Humidité 87%
Pression 1023 hPa
Visibilité 10 km ou plus

METAR: EGLC 180450Z AUTO VRB02KT 9999 NCD 03/01 Q1023

Heure: 05:09 (05:09 UTC)

Prévision

Le bulletin a été fait il y a 3 heures et 4 minutes, à 02:05 UTC
Prévision valable du 18 à 03 UTC au 18 à 12 UTC
Vent 5 kt de sud
Visibilité 10 km ou plus
Quelques nuages à une hauteur de 3000 ft
Probabilité 40%
du 18 à 03 UTC au 18 à 08 UTC
Visibilité: 5000 m
brume

TAF: EGLC 180205Z 1803/1812 19005KT 9999 FEW030 PROB40 1803/1808 5000 BR

Observations et prévisions météorologiques de plus de 4000 aéroports (messages METAR et TAF).

Les stations disponibles sont représentées par des disques jaunes et rouges sur la carte.

Passer la souris dessus pour voir le nom de la station.

Cliquer dessus pour voir les observations et prévisions météorologiques.

Pour changer de carte: cliquez sur les boutons verts avec une croix noire pour zoomer, sur le bouton vert avec un tiret pour effectuer un zoom arrière, ou sur les flèches vertes pour les cartes adjacentes.


METAR-TAF: